createdAt,value
2019-03-03T00:02:12.966Z,18.53
2019-03-03T00:04:45.333Z,15.93
2019-03-03T00:07:18.115Z,18.13
2019-03-03T00:09:50.592Z,15.53
2019-03-03T00:12:22.965Z,18.13
2019-03-03T00:14:55.335Z,21.20
2019-03-03T00:17:28.018Z,20.63
2019-03-03T00:20:00.398Z,21.73
2019-03-03T00:22:32.766Z,18.87
2019-03-03T00:25:05.745Z,24.30
2019-03-03T00:27:38.121Z,24.17
2019-03-03T00:30:21.956Z,21.57
2019-03-03T00:32:54.331Z,17.97
2019-03-03T00:35:26.807Z,18.97
2019-03-03T00:38:06.552Z,21.10
2019-03-03T00:40:56.012Z,14.87
2019-03-03T00:43:28.086Z,18.47
2019-03-03T00:46:09.164Z,18.67
2019-03-03T00:48:59.253Z,18.20
2019-03-03T00:51:36.232Z,21.70
2019-03-03T00:54:10.452Z,17.20
2019-03-03T00:57:02.785Z,19.17
2019-03-03T00:59:39.661Z,21.60
2019-03-03T01:02:11.726Z,18.03
2019-03-03T01:04:43.794Z,16.70
2019-03-03T01:07:20.668Z,16.27
2019-03-03T01:09:54.198Z,16.97
2019-03-03T01:12:40.977Z,19.73
2019-03-03T01:15:18.478Z,15.57
2019-03-03T01:18:08.969Z,19.90
2019-03-03T01:20:54.858Z,14.17
2019-03-03T01:23:31.437Z,14.17
2019-03-03T01:26:04.002Z,15.33
2019-03-03T01:28:36.379Z,14.27
2019-03-03T01:31:08.856Z,16.00
2019-03-03T01:33:41.219Z,17.03
2019-03-03T01:36:13.905Z,16.70
2019-03-03T01:38:46.068Z,17.63
2019-03-03T01:41:18.438Z,15.87
2019-03-03T01:43:50.912Z,16.83
2019-03-03T01:46:23.295Z,14.13
2019-03-03T01:48:55.221Z,18.47
2019-03-03T01:51:27.613Z,15.73
2019-03-03T01:54:00.308Z,16.13
2019-03-03T01:56:32.784Z,19.17
2019-03-03T01:59:05.150Z,18.37
2019-03-03T02:01:37.625Z,20.13
2019-03-03T02:04:10.096Z,19.57
2019-03-03T02:06:42.568Z,19.43
2019-03-03T02:09:14.953Z,18.20
2019-03-03T02:11:47.312Z,19.73
2019-03-03T02:20:20.253Z,18.23
2019-03-03T02:22:57.918Z,17.63
2019-03-03T02:26:06.723Z,17.17
2019-03-03T02:29:27.161Z,14.67
2019-03-03T02:32:11.508Z,17.57
2019-03-03T02:35:08.407Z,19.27
2019-03-03T02:37:45.454Z,16.43
2019-03-03T02:40:25.949Z,16.40
2019-03-03T02:50:23.636Z,18.40
2019-03-03T02:59:18.201Z,18.90
2019-03-03T03:11:51.036Z,20.70
2019-03-03T03:24:23.258Z,18.73
2019-03-03T03:27:00.678Z,17.37
2019-03-03T03:33:06.546Z,14.97
2019-03-03T03:35:56.788Z,14.47
2019-03-03T03:41:47.522Z,15.57
2019-03-03T03:44:28.160Z,15.67
2019-03-03T03:47:15.966Z,14.83
2019-03-03T03:50:03.952Z,20.23
2019-03-03T03:52:51.371Z,18.03
2019-03-03T03:55:43.949Z,20.27
2019-03-03T03:58:41.067Z,22.53
2019-03-03T04:01:23.318Z,18.23
2019-03-03T04:04:03.381Z,21.10
2019-03-03T04:06:57.771Z,17.77
2019-03-03T04:09:38.318Z,19.33
2019-03-03T04:12:34.555Z,16.87
2019-03-03T04:15:20.092Z,17.70
2019-03-03T04:18:07.874Z,19.80
2019-03-03T04:21:11.064Z,18.40
2019-03-03T04:24:19.975Z,17.87
2019-03-03T04:27:12.050Z,19.10
2019-03-03T04:32:45.478Z,18.50
2019-03-03T04:35:36.768Z,16.93
2019-03-03T04:38:28.790Z,19.27
2019-03-03T04:41:09.275Z,19.77
2019-03-03T04:47:08.016Z,20.80
2019-03-03T04:49:52.048Z,17.93
2019-03-03T04:56:06.041Z,16.43
2019-03-03T05:02:25.576Z,16.00
2019-03-03T05:05:10.280Z,17.73
2019-03-03T05:08:10.639Z,13.43
2019-03-03T05:11:00.674Z,20.73
2019-03-03T05:13:53.210Z,13.90
2019-03-03T05:16:32.984Z,16.70
2019-03-03T05:19:24.775Z,16.57
2019-03-03T05:22:06.820Z,16.73
2019-03-03T05:24:42.545Z,19.30
2019-03-03T05:27:19.552Z,15.60
2019-03-03T05:29:53.677Z,18.33
2019-03-03T05:32:33.000Z,15.47
2019-03-03T05:35:12.936Z,14.10
2019-03-03T05:37:45.473Z,18.10
2019-03-03T05:40:24.751Z,17.30
2019-03-03T05:43:03.573Z,17.30
2019-03-03T05:45:56.163Z,14.47
2019-03-03T05:48:40.509Z,15.67
2019-03-03T05:51:13.436Z,19.07
2019-03-03T05:53:52.111Z,14.83
2019-03-03T05:56:26.901Z,14.07
2019-03-03T05:58:59.713Z,18.83
2019-03-03T06:01:36.701Z,20.03
2019-03-03T06:05:00.252Z,13.00
2019-03-03T06:07:31.737Z,18.17
2019-03-03T06:10:21.064Z,21.03
2019-03-03T06:25:46.968Z,17.13
2019-03-03T06:28:36.110Z,17.40
2019-03-03T06:31:09.994Z,19.57
2019-03-03T07:35:42.268Z,19.47
2019-03-03T08:00:09.633Z,16.93
2019-03-03T08:03:03.028Z,17.63
2019-03-03T08:05:57.503Z,16.20
2019-03-03T08:08:55.669Z,18.00
2019-03-03T08:14:43.967Z,21.93
2019-03-03T08:17:43.884Z,16.13
2019-03-03T08:20:35.499Z,19.23
2019-03-03T08:23:41.852Z,13.33
2019-03-03T08:26:07.066Z,16.50
2019-03-03T08:28:44.061Z,16.67
2019-03-03T08:31:18.750Z,20.50
2019-03-03T08:33:57.166Z,19.60
2019-03-03T08:36:43.321Z,15.00
2019-03-03T08:39:24.589Z,17.93
2019-03-03T08:42:02.784Z,13.27
2019-03-03T08:44:40.631Z,21.13
2019-03-03T08:47:20.670Z,15.87
2019-03-03T08:49:58.541Z,12.43
2019-03-03T08:52:34.896Z,15.50
2019-03-03T08:55:24.062Z,19.03
2019-03-03T08:58:11.791Z,13.13
2019-03-03T09:01:00.849Z,12.70
2019-03-03T09:03:37.512Z,12.87
2019-03-03T09:06:18.649Z,10.80
2019-03-03T09:08:58.287Z,17.80
2019-03-03T09:11:44.213Z,16.43
2019-03-03T09:14:23.934Z,12.90
2019-03-03T09:17:00.435Z,12.93
2019-03-03T09:19:47.635Z,10.67
2019-03-03T09:22:30.884Z,12.93
2019-03-03T09:25:11.914Z,12.87
2019-03-03T09:28:05.117Z,12.97
2019-03-03T09:30:47.840Z,12.53
2019-03-03T09:33:20.416Z,13.10
2019-03-03T09:36:05.957Z,8.97
2019-03-03T09:38:50.027Z,11.03
2019-03-03T09:41:34.773Z,8.30
2019-03-03T09:44:20.827Z,9.90
2019-03-03T09:47:00.017Z,7.70
2019-03-03T09:49:58.934Z,7.33
2019-03-03T09:52:49.054Z,8.87
2019-03-03T09:55:32.004Z,10.83
2019-03-03T09:58:09.916Z,11.43
2019-03-03T10:00:45.200Z,10.30
2019-03-03T10:03:32.332Z,7.90
2019-03-03T10:06:23.058Z,10.13
2019-03-03T10:09:42.999Z,8.20
2019-03-03T10:12:29.406Z,8.63
2019-03-03T10:18:51.854Z,7.63
2019-03-03T10:21:50.084Z,7.80
2019-03-03T10:24:30.537Z,6.97
2019-03-03T10:30:35.710Z,7.13
2019-03-03T10:33:18.420Z,6.03
2019-03-03T10:38:54.612Z,8.13
2019-03-03T10:41:39.306Z,8.07
2019-03-03T10:44:27.099Z,7.80
2019-03-03T10:47:15.075Z,6.37
2019-03-03T10:49:55.992Z,4.70
2019-03-03T10:52:43.770Z,6.73
2019-03-03T10:55:49.968Z,5.57
2019-03-03T10:58:29.975Z,6.23
2019-03-03T11:01:09.134Z,8.17
2019-03-03T11:03:55.839Z,6.17
2019-03-03T11:06:34.232Z,7.23
2019-03-03T11:09:19.913Z,8.30
2019-03-03T11:12:14.640Z,6.97
2019-03-03T11:15:18.193Z,5.07
2019-03-03T11:18:07.331Z,6.30
2019-03-03T11:24:18.254Z,5.50
2019-03-03T11:27:15.850Z,6.50
2019-03-03T11:34:15.152Z,4.33
2019-03-03T11:47:34.716Z,5.23
2019-03-03T11:54:45.545Z,5.43
2019-03-03T11:57:54.125Z,4.27
2019-03-03T12:11:16.043Z,4.00
2019-03-03T13:30:33.476Z,4.20
2019-03-03T13:33:09.182Z,7.33
2019-03-03T13:36:00.793Z,4.70
2019-03-03T13:38:36.950Z,5.17
2019-03-03T13:41:19.033Z,6.07
2019-03-03T14:07:04.284Z,7.10
2019-03-03T14:09:40.458Z,7.50
2019-03-03T14:16:01.275Z,6.47
2019-03-03T14:51:11.835Z,6.70
2019-03-03T14:54:06.000Z,6.33
2019-03-03T14:56:50.369Z,6.40
2019-03-03T16:11:16.450Z,4.43
2019-03-03T16:16:58.588Z,7.40
2019-03-03T16:19:44.759Z,5.63
2019-03-03T16:37:06.031Z,5.23
2019-03-03T17:20:45.959Z,6.40
2019-03-03T17:23:31.534Z,6.17
2019-03-03T17:26:12.516Z,5.23
2019-03-03T17:28:52.132Z,5.20
2019-03-03T17:31:30.886Z,7.47
2019-03-03T17:34:23.847Z,5.10
2019-03-03T17:37:11.523Z,8.70
2019-03-03T18:58:57.222Z,6.83
2019-03-03T19:09:45.495Z,5.10
2019-03-03T19:12:33.637Z,6.20
2019-03-03T19:15:24.224Z,6.90
2019-03-03T19:37:33.939Z,7.63
2019-03-03T20:06:30.278Z,5.80
2019-03-03T20:09:09.509Z,5.37
2019-03-03T20:14:56.923Z,5.93
2019-03-03T20:20:11.210Z,6.07
2019-03-03T20:22:54.838Z,5.10
2019-03-03T20:25:30.956Z,8.73
2019-03-03T20:28:11.308Z,8.93
2019-03-03T20:30:49.819Z,5.13
2019-03-03T20:33:26.629Z,7.07
2019-03-03T20:36:01.043Z,5.07
2019-03-03T20:38:38.796Z,7.07
2019-03-03T20:41:16.079Z,4.13
2019-03-03T20:43:54.884Z,5.10
2019-03-03T20:46:30.042Z,4.00
2019-03-03T20:49:06.189Z,5.43
2019-03-03T20:51:52.703Z,4.40
2019-03-03T20:54:27.322Z,4.97
2019-03-03T20:57:00.144Z,5.23
2019-03-03T20:59:34.885Z,3.53
2019-03-03T21:02:09.872Z,4.77
2019-03-03T21:04:47.896Z,6.33
2019-03-03T21:30:23.732Z,4.43
2019-03-03T21:38:44.146Z,4.60
2019-03-03T21:44:24.931Z,4.03
2019-03-03T21:47:09.533Z,3.73
2019-03-03T21:49:58.363Z,4.73
2019-03-03T21:52:32.714Z,4.43
2019-03-03T21:55:12.230Z,5.50
2019-03-03T21:57:48.631Z,3.97
2019-03-03T22:00:41.274Z,5.83
2019-03-03T22:03:16.202Z,5.47
2019-03-03T22:05:50.175Z,4.30
2019-03-03T22:08:22.125Z,5.53
2019-03-03T22:10:54.627Z,4.57
2019-03-03T22:13:26.979Z,4.53
2019-03-03T22:15:59.451Z,4.27
2019-03-03T22:18:33.594Z,5.93
2019-03-03T22:21:07.290Z,6.23
2019-03-03T22:23:40.373Z,5.13
2019-03-03T22:26:12.859Z,4.53
2019-03-03T22:28:45.357Z,4.60
2019-03-03T22:31:18.195Z,6.10
2019-03-03T22:33:50.566Z,4.70
2019-03-03T22:36:22.959Z,5.73
2019-03-03T22:38:56.462Z,5.90
2019-03-03T22:41:29.051Z,5.43
2019-03-03T22:44:01.681Z,4.70
2019-03-03T22:46:34.218Z,4.67
2019-03-03T22:49:07.372Z,4.10
2019-03-03T22:51:39.832Z,4.27
2019-03-03T22:54:12.223Z,4.40
2019-03-03T22:56:45.353Z,5.17
2019-03-03T22:59:17.677Z,4.40
2019-03-03T23:01:49.870Z,4.60
2019-03-03T23:04:52.026Z,4.47
2019-03-03T23:07:35.055Z,5.57
2019-03-03T23:10:26.838Z,3.80
2019-03-03T23:13:21.982Z,4.70
2019-03-03T23:15:59.037Z,5.10
2019-03-03T23:18:57.003Z,4.10
2019-03-03T23:21:57.582Z,4.50
2019-03-03T23:24:49.421Z,4.63
2019-03-03T23:27:21.740Z,5.50
2019-03-03T23:29:54.452Z,3.60
2019-03-03T23:32:26.898Z,2.50
2019-03-03T23:35:00.404Z,4.43
2019-03-03T23:37:32.721Z,4.20
2019-03-03T23:40:06.842Z,4.67
2019-03-03T23:42:39.142Z,2.97
2019-03-03T23:45:12.838Z,4.43
2019-03-03T23:47:45.418Z,3.90
2019-03-03T23:50:17.795Z,4.70
2019-03-03T23:52:50.162Z,4.50
2019-03-03T23:55:22.540Z,3.93
2019-03-03T23:57:55.109Z,4.73
